createdAt,value
2022-09-06T00:01:49.174Z,2.50
2022-09-06T00:04:15.825Z,2.03
2022-09-06T00:06:42.375Z,2.10
2022-09-06T00:09:08.878Z,2.70
2022-09-06T00:11:35.404Z,2.43
2022-09-06T00:14:01.909Z,2.57
2022-09-06T00:16:30.489Z,2.10
2022-09-06T00:18:57.216Z,2.47
2022-09-06T00:21:23.758Z,1.80
2022-09-06T00:23:50.352Z,2.80
2022-09-06T00:26:16.928Z,2.57
2022-09-06T00:28:43.669Z,2.80
2022-09-06T00:31:10.255Z,2.90
2022-09-06T00:33:36.803Z,2.70
2022-09-06T00:36:03.307Z,2.70
2022-09-06T00:38:29.865Z,2.43
2022-09-06T00:40:57.160Z,2.47
2022-09-06T00:43:23.709Z,2.43
2022-09-06T00:45:50.296Z,2.13
2022-09-06T00:48:16.956Z,2.40
2022-09-06T00:50:43.442Z,2.37
2022-09-06T00:53:09.946Z,2.90
2022-09-06T00:55:36.464Z,2.90
2022-09-06T00:58:02.965Z,2.90
2022-09-06T01:00:29.639Z,3.00
2022-09-06T01:02:56.183Z,2.53
2022-09-06T01:05:22.784Z,3.23
2022-09-06T01:07:49.278Z,3.00
2022-09-06T01:10:15.889Z,3.00
2022-09-06T01:12:42.466Z,2.73
2022-09-06T01:15:09.020Z,2.30
2022-09-06T01:17:35.568Z,2.40
2022-09-06T01:20:02.095Z,2.80
2022-09-06T01:22:28.749Z,2.90
2022-09-06T01:24:55.396Z,2.33
2022-09-06T01:27:21.927Z,2.97
2022-09-06T01:29:48.444Z,2.70
2022-09-06T01:32:14.950Z,2.00
2022-09-06T01:34:41.471Z,2.70
2022-09-06T01:37:10.307Z,2.20
2022-09-06T01:39:37.361Z,2.37
2022-09-06T01:42:03.889Z,2.27
2022-09-06T01:44:30.453Z,2.70
2022-09-06T01:46:56.938Z,2.10
2022-09-06T01:49:23.455Z,2.37
2022-09-06T01:51:49.944Z,2.07
2022-09-06T01:54:16.537Z,2.30
2022-09-06T01:56:43.089Z,2.47
2022-09-06T01:59:09.627Z,2.70
2022-09-06T02:01:36.159Z,2.83
2022-09-06T02:04:02.785Z,2.60
2022-09-06T02:06:29.316Z,2.53
2022-09-06T02:08:55.878Z,2.43
2022-09-06T02:11:22.418Z,2.30
2022-09-06T02:13:48.981Z,2.50
2022-09-06T02:16:15.687Z,2.77
2022-09-06T02:18:42.267Z,2.93
2022-09-06T02:21:08.762Z,2.13
2022-09-06T02:23:35.316Z,2.63
2022-09-06T02:26:01.882Z,2.53
2022-09-06T02:28:28.580Z,2.27
2022-09-06T02:30:55.225Z,2.43
2022-09-06T02:33:21.850Z,2.90
2022-09-06T02:35:48.795Z,2.30
2022-09-06T02:38:15.354Z,2.40
2022-09-06T02:40:43.123Z,2.67
2022-09-06T02:43:09.630Z,2.00
2022-09-06T02:45:36.210Z,2.23
2022-09-06T02:48:02.846Z,2.70
2022-09-06T02:50:29.402Z,2.50
2022-09-06T02:52:55.928Z,2.50
2022-09-06T02:55:22.433Z,2.80
2022-09-06T02:57:48.992Z,2.20
2022-09-06T03:00:15.487Z,2.90
2022-09-06T03:02:42.232Z,2.47
2022-09-06T03:05:08.763Z,2.90
2022-09-06T03:07:35.452Z,2.60
2022-09-06T03:10:02.435Z,2.70
2022-09-06T03:12:28.944Z,3.13
2022-09-06T03:14:55.460Z,2.20
2022-09-06T03:17:21.996Z,2.40
2022-09-06T03:19:48.493Z,2.40
2022-09-06T03:22:15.009Z,2.77
2022-09-06T03:24:41.629Z,3.60
2022-09-06T03:27:08.300Z,2.70
2022-09-06T03:29:34.853Z,2.77
2022-09-06T03:32:01.368Z,2.50
2022-09-06T03:34:27.864Z,2.67
2022-09-06T03:36:54.362Z,2.40
2022-09-06T03:39:21.245Z,2.30
2022-09-06T03:41:47.733Z,2.70
2022-09-06T03:44:14.244Z,2.73
2022-09-06T03:46:40.831Z,2.77
2022-09-06T03:49:10.074Z,2.40
2022-09-06T03:51:36.587Z,2.70
2022-09-06T03:54:03.140Z,3.10
2022-09-06T03:56:29.740Z,2.50
2022-09-06T03:58:56.295Z,2.80
2022-09-06T04:01:22.836Z,2.63
2022-09-06T04:03:49.393Z,2.40
2022-09-06T04:06:15.956Z,2.47
2022-09-06T04:08:42.474Z,2.80
2022-09-06T04:11:08.979Z,2.57
2022-09-06T04:13:35.483Z,2.63
2022-09-06T04:16:02.035Z,3.17
2022-09-06T04:18:28.663Z,3.33
2022-09-06T04:20:56.201Z,2.67
2022-09-06T04:23:22.732Z,2.40
2022-09-06T04:25:49.299Z,2.97
2022-09-06T04:28:15.877Z,2.90
2022-09-06T04:30:42.358Z,2.87
2022-09-06T04:33:08.864Z,3.30
2022-09-06T04:35:35.464Z,3.10
2022-09-06T04:38:01.979Z,3.30
2022-09-06T04:40:28.523Z,3.10
2022-09-06T04:42:55.055Z,3.00
2022-09-06T04:45:21.604Z,2.80
2022-09-06T04:47:50.248Z,3.40
2022-09-06T04:50:16.765Z,2.60
2022-09-06T04:52:43.280Z,3.13
2022-09-06T04:55:09.819Z,2.73
2022-09-06T04:57:37.505Z,3.10
2022-09-06T05:00:06.473Z,2.93
2022-09-06T05:02:33.052Z,3.00
2022-09-06T05:04:59.639Z,3.07
2022-09-06T05:07:26.137Z,2.60
2022-09-06T05:09:52.736Z,2.60
2022-09-06T05:12:19.226Z,3.10
2022-09-06T05:14:45.772Z,3.03
2022-09-06T05:17:14.657Z,3.13
2022-09-06T05:19:41.164Z,2.70
2022-09-06T05:22:07.758Z,2.40
2022-09-06T05:24:34.280Z,2.93
2022-09-06T05:27:03.761Z,3.10
2022-09-06T05:29:30.772Z,2.70
2022-09-06T05:31:57.456Z,2.00
2022-09-06T05:34:23.969Z,2.87
2022-09-06T05:36:50.493Z,2.43
2022-09-06T05:39:20.996Z,2.60
2022-09-06T05:41:47.624Z,2.50
2022-09-06T05:44:14.426Z,2.63
2022-09-06T05:46:40.917Z,2.40
2022-09-06T05:49:08.049Z,2.47
2022-09-06T05:51:34.599Z,2.47
2022-09-06T05:54:01.121Z,2.73
2022-09-06T05:56:27.642Z,2.40
2022-09-06T05:58:54.121Z,2.60
2022-09-06T06:01:20.695Z,2.70
2022-09-06T06:03:47.359Z,2.70
2022-09-06T06:06:13.852Z,2.80
2022-09-06T06:08:40.365Z,3.03
2022-09-06T06:11:06.862Z,2.57
2022-09-06T06:13:36.667Z,2.50
2022-09-06T06:16:03.413Z,2.40
2022-09-06T06:18:30.075Z,2.57
2022-09-06T06:20:56.767Z,2.50
2022-09-06T06:23:23.304Z,3.00
2022-09-06T06:25:49.796Z,2.90
2022-09-06T06:28:16.294Z,2.90
2022-09-06T06:30:42.813Z,3.70
2022-09-06T06:33:09.325Z,2.37
2022-09-06T06:35:39.959Z,2.33
2022-09-06T06:38:06.734Z,2.90
2022-09-06T06:40:33.581Z,2.80
2022-09-06T06:43:01.496Z,2.70
2022-09-06T06:45:28.117Z,2.33
2022-09-06T06:47:54.771Z,3.03
2022-09-06T06:50:21.330Z,2.43
2022-09-06T06:52:47.890Z,2.53
2022-09-06T06:55:15.026Z,2.70
2022-09-06T06:57:41.643Z,3.50
2022-09-06T07:00:08.309Z,3.37
2022-09-06T07:02:34.967Z,2.50
2022-09-06T07:05:02.161Z,2.23
2022-09-06T07:12:47.008Z,2.50
2022-09-06T07:15:13.958Z,2.07
2022-09-06T07:17:40.611Z,2.33
2022-09-06T07:20:14.973Z,2.20
2022-09-06T07:22:42.117Z,2.27
2022-09-06T07:25:08.789Z,1.80
2022-09-06T07:27:50.856Z,2.00
2022-09-06T07:30:18.006Z,2.10
2022-09-06T07:32:44.666Z,1.53
2022-09-06T07:35:13.770Z,1.73
2022-09-06T07:37:40.368Z,1.97
2022-09-06T07:40:07.065Z,2.10
2022-09-06T07:42:36.401Z,2.47
2022-09-06T07:45:03.242Z,1.50
2022-09-06T07:55:32.670Z,1.87
2022-09-06T07:57:59.235Z,1.50
2022-09-06T08:00:25.795Z,2.03
2022-09-06T08:02:53.432Z,1.90
2022-09-06T08:10:53.325Z,2.00
2022-09-06T08:13:19.913Z,1.37
2022-09-06T08:15:46.582Z,2.00
2022-09-06T08:18:13.224Z,1.07
2022-09-06T08:20:39.797Z,1.47
2022-09-06T08:23:06.367Z,1.73
2022-09-06T08:25:32.967Z,1.40
2022-09-06T08:27:59.760Z,1.47
2022-09-06T08:30:27.613Z,1.43
2022-09-06T08:32:54.228Z,1.37
2022-09-06T08:35:20.894Z,1.47
2022-09-06T08:37:47.404Z,1.40
2022-09-06T08:40:14.090Z,1.40
2022-09-06T08:42:40.806Z,1.57
2022-09-06T08:45:12.502Z,1.20
2022-09-06T08:47:39.060Z,1.40
2022-09-06T08:50:05.596Z,1.20
2022-09-06T08:52:32.223Z,1.33
2022-09-06T08:54:58.783Z,1.43
2022-09-06T08:57:25.317Z,1.20
2022-09-06T08:59:51.869Z,1.23
2022-09-06T09:02:18.512Z,1.43
2022-09-06T09:04:45.467Z,1.20
2022-09-06T09:07:12.089Z,1.37
2022-09-06T09:09:38.638Z,1.40
2022-09-06T09:12:05.182Z,1.05
2022-09-06T09:14:35.344Z,1.52
2022-09-06T09:17:02.022Z,1.17
2022-09-06T09:19:32.082Z,1.25
2022-09-06T09:21:58.607Z,1.05
2022-09-06T09:24:25.221Z,1.35
2022-09-06T09:26:51.867Z,1.45
2022-09-06T09:29:18.501Z,1.45
2022-09-06T09:31:46.996Z,1.67
2022-09-06T09:34:15.296Z,1.10
2022-09-06T09:39:28.634Z,1.30
2022-09-06T09:41:55.256Z,1.20
2022-09-06T09:44:28.048Z,0.90
2022-09-06T09:46:54.588Z,1.20
2022-09-06T09:49:21.157Z,0.88
2022-09-06T09:51:47.840Z,1.10
2022-09-06T09:54:14.521Z,1.05
2022-09-06T09:56:41.093Z,1.35
2022-09-06T09:59:08.325Z,1.20
2022-09-06T10:01:34.871Z,1.00
2022-09-06T10:09:34.813Z,1.17
2022-09-06T10:12:01.637Z,1.20
2022-09-06T10:14:28.407Z,1.38
2022-09-06T10:16:54.996Z,1.42
2022-09-06T10:19:21.743Z,1.00
2022-09-06T10:21:48.259Z,0.93
2022-09-06T10:24:30.174Z,0.88
2022-09-06T10:26:56.879Z,1.00
2022-09-06T10:29:23.400Z,1.00
2022-09-06T10:31:50.055Z,0.90
2022-09-06T10:34:16.782Z,1.10
2022-09-06T10:36:44.189Z,0.80
2022-09-06T10:39:10.875Z,0.90
2022-09-06T10:41:37.432Z,0.93
2022-09-06T10:44:03.957Z,0.82
2022-09-06T10:46:31.661Z,0.88
2022-09-06T10:48:58.301Z,0.95
2022-09-06T10:51:24.889Z,0.80
2022-09-06T10:53:51.417Z,0.88
2022-09-06T10:56:18.350Z,1.30
2022-09-06T11:01:31.683Z,0.80
2022-09-06T11:04:02.036Z,0.90
2022-09-06T11:06:33.460Z,0.80
2022-09-06T11:09:00.122Z,0.70
2022-09-06T11:11:26.745Z,1.30
2022-09-06T11:13:53.383Z,1.70
2022-09-06T11:16:20.509Z,0.90
2022-09-06T11:18:47.111Z,1.17
2022-09-06T11:21:18.785Z,1.00
2022-09-06T11:23:48.128Z,1.00
2022-09-06T11:26:14.693Z,0.70
2022-09-06T11:28:41.242Z,1.25
2022-09-06T11:31:07.789Z,1.27
2022-09-06T11:33:39.929Z,1.05
2022-09-06T11:36:06.539Z,0.77
2022-09-06T11:38:33.160Z,0.82
2022-09-06T11:40:59.750Z,0.65
2022-09-06T11:43:26.439Z,0.90
2022-09-06T11:45:53.064Z,1.20
2022-09-06T11:48:19.605Z,0.98
2022-09-06T11:50:46.143Z,1.00
2022-09-06T11:53:12.931Z,1.10
2022-09-06T11:55:39.516Z,1.15
2022-09-06T11:58:06.043Z,0.93
2022-09-06T12:00:32.772Z,0.90
2022-09-06T12:05:46.007Z,0.77
2022-09-06T12:08:12.633Z,0.90
2022-09-06T12:10:39.307Z,1.00
2022-09-06T12:13:05.854Z,0.90
2022-09-06T12:15:32.434Z,1.15
2022-09-06T12:17:58.997Z,1.00
2022-09-06T12:20:25.567Z,1.17
2022-09-06T12:22:52.221Z,1.00
2022-09-06T12:25:18.972Z,1.27
2022-09-06T12:27:46.611Z,1.20
2022-09-06T12:30:13.151Z,1.40
2022-09-06T12:32:39.691Z,1.10
2022-09-06T12:37:52.875Z,1.15
2022-09-06T12:40:19.412Z,1.60
2022-09-06T12:42:45.980Z,1.10
2022-09-06T12:45:12.475Z,1.20
2022-09-06T12:47:40.065Z,1.38
2022-09-06T12:50:07.493Z,1.27
2022-09-06T12:52:34.037Z,1.17
2022-09-06T12:55:01.196Z,1.50
2022-09-06T12:57:27.720Z,2.00
2022-09-06T12:59:54.295Z,1.13
2022-09-06T13:02:20.930Z,1.00
2022-09-06T13:04:48.696Z,1.10
2022-09-06T13:07:15.359Z,1.27
2022-09-06T13:09:41.940Z,1.17
2022-09-06T13:12:08.807Z,0.98
2022-09-06T13:14:35.409Z,1.20
2022-09-06T13:17:02.031Z,1.25
2022-09-06T13:19:29.663Z,1.50
2022-09-06T13:21:57.495Z,1.00
2022-09-06T13:24:24.079Z,1.08
2022-09-06T13:26:50.656Z,0.80
2022-09-06T13:29:17.206Z,1.10
2022-09-06T13:31:43.793Z,1.10
2022-09-06T13:34:10.340Z,1.10
2022-09-06T13:36:36.997Z,1.20
2022-09-06T13:39:04.383Z,1.45
2022-09-06T13:41:31.033Z,1.08
2022-09-06T13:43:58.171Z,0.93
2022-09-06T13:46:24.765Z,1.23
2022-09-06T13:48:51.435Z,1.30
2022-09-06T13:51:18.362Z,1.58
2022-09-06T13:53:44.944Z,1.55
2022-09-06T13:56:11.963Z,1.42
2022-09-06T13:58:38.545Z,1.00
2022-09-06T14:01:08.512Z,1.30
2022-09-06T14:03:35.273Z,1.10
2022-09-06T14:06:01.858Z,0.90
2022-09-06T14:08:38.860Z,1.10
2022-09-06T14:11:14.953Z,1.27
2022-09-06T14:13:41.752Z,1.00
2022-09-06T14:16:08.390Z,1.10
2022-09-06T14:18:35.048Z,1.40
2022-09-06T14:21:01.595Z,1.48
2022-09-06T14:23:28.194Z,1.60
2022-09-06T14:25:54.743Z,0.95
2022-09-06T14:28:21.419Z,0.90
2022-09-06T14:30:48.036Z,1.58
2022-09-06T14:33:14.724Z,1.27
2022-09-06T14:35:41.325Z,1.13
2022-09-06T14:38:07.883Z,1.50
2022-09-06T14:40:34.437Z,1.38
2022-09-06T14:43:01.027Z,0.85
2022-09-06T14:45:27.693Z,1.13
2022-09-06T14:47:54.359Z,1.40
2022-09-06T14:50:20.953Z,0.80
2022-09-06T14:52:47.625Z,1.45
2022-09-06T14:55:14.344Z,0.95
2022-09-06T14:57:40.882Z,1.20
2022-09-06T15:00:10.259Z,1.08
2022-09-06T15:02:37.157Z,1.40
2022-09-06T15:05:03.941Z,0.90
2022-09-06T15:07:31.411Z,1.27
2022-09-06T15:09:57.994Z,1.05
2022-09-06T15:12:24.632Z,1.50
2022-09-06T15:14:51.168Z,1.10
2022-09-06T15:17:17.707Z,0.85
2022-09-06T15:19:44.770Z,1.05
2022-09-06T15:22:11.292Z,1.27
2022-09-06T15:24:38.508Z,1.10
2022-09-06T15:27:05.297Z,1.52
2022-09-06T15:29:31.871Z,1.05
2022-09-06T15:31:58.435Z,1.13
2022-09-06T15:34:25.012Z,1.35
2022-09-06T15:36:51.681Z,0.77
2022-09-06T15:39:18.224Z,1.52
2022-09-06T15:41:44.820Z,1.10
2022-09-06T15:44:11.862Z,1.20
2022-09-06T15:46:39.748Z,1.20
2022-09-06T15:49:06.395Z,1.67
2022-09-06T15:51:33.017Z,1.33
2022-09-06T15:53:59.571Z,1.48
2022-09-06T15:56:26.135Z,1.80
2022-09-06T15:58:52.875Z,1.35
2022-09-06T16:01:19.500Z,1.45
2022-09-06T16:03:46.088Z,1.33
2022-09-06T16:06:28.533Z,1.27
2022-09-06T16:08:55.456Z,0.95
2022-09-06T16:11:22.007Z,1.20
2022-09-06T16:13:48.543Z,1.58
2022-09-06T16:16:15.089Z,1.23
2022-09-06T16:18:42.399Z,1.10
2022-09-06T16:21:09.099Z,1.17
2022-09-06T16:23:36.147Z,1.33
2022-09-06T16:26:02.649Z,1.17
2022-09-06T16:28:29.343Z,1.27
2022-09-06T16:30:56.115Z,0.90
2022-09-06T16:33:22.643Z,1.23
2022-09-06T16:35:49.166Z,1.58
2022-09-06T16:38:15.713Z,1.55
2022-09-06T16:40:42.233Z,1.10
2022-09-06T16:43:08.773Z,1.40
2022-09-06T16:45:35.331Z,1.33
2022-09-06T16:48:01.906Z,1.40
2022-09-06T16:50:28.928Z,1.00
2022-09-06T16:52:55.498Z,0.95
2022-09-06T16:55:22.027Z,0.98
2022-09-06T16:57:48.605Z,1.50
2022-09-06T17:00:15.990Z,1.60
2022-09-06T17:02:47.005Z,1.20
2022-09-06T17:05:14.421Z,1.15
2022-09-06T17:07:41.441Z,1.10
2022-09-06T17:10:07.935Z,1.00
2022-09-06T17:12:34.442Z,1.35
2022-09-06T17:15:00.918Z,1.40
2022-09-06T17:17:27.784Z,1.38
2022-09-06T17:19:54.288Z,2.22
2022-09-06T17:22:21.527Z,1.23
2022-09-06T17:24:48.179Z,2.08
2022-09-06T17:27:14.778Z,1.48
2022-09-06T17:29:41.332Z,1.45
2022-09-06T17:32:11.108Z,1.55
2022-09-06T17:34:37.657Z,1.23
2022-09-06T17:37:04.219Z,1.10
2022-09-06T17:39:30.906Z,1.70
2022-09-06T17:41:58.673Z,1.48
2022-09-06T17:44:25.339Z,1.70
2022-09-06T17:47:11.572Z,1.90
2022-09-06T17:49:39.190Z,1.48
2022-09-06T17:52:05.753Z,1.23
2022-09-06T17:54:32.329Z,1.55
2022-09-06T17:56:58.957Z,1.92
2022-09-06T17:59:34.847Z,1.05
2022-09-06T18:02:03.243Z,1.30
2022-09-06T18:04:29.800Z,1.73
2022-09-06T18:06:56.329Z,1.38
2022-09-06T18:09:22.841Z,1.50
2022-09-06T18:11:49.407Z,2.00
2022-09-06T18:14:16.101Z,1.38
2022-09-06T18:16:45.097Z,1.75
2022-09-06T18:19:12.236Z,1.73
2022-09-06T18:21:40.357Z,1.60
2022-09-06T18:24:07.147Z,1.52
2022-09-06T18:26:33.681Z,1.70
2022-09-06T18:29:00.216Z,1.60
2022-09-06T18:31:27.255Z,1.60
2022-09-06T18:33:53.824Z,1.50
2022-09-06T18:36:20.418Z,1.50
2022-09-06T18:38:47.008Z,1.45
2022-09-06T18:41:33.495Z,1.98
2022-09-06T18:44:02.419Z,1.37
2022-09-06T18:46:28.963Z,1.70
2022-09-06T18:48:55.863Z,1.50
2022-09-06T18:51:22.533Z,1.77
2022-09-06T18:53:49.044Z,1.63
2022-09-06T18:56:15.561Z,1.40
2022-09-06T18:58:42.168Z,1.63
2022-09-06T19:01:08.877Z,1.60
2022-09-06T19:03:35.824Z,1.93
2022-09-06T19:06:02.348Z,1.80
2022-09-06T19:08:28.934Z,1.80
2022-09-06T19:10:55.488Z,2.03
2022-09-06T19:13:22.348Z,1.77
2022-09-06T19:15:49.569Z,1.50
2022-09-06T19:18:16.136Z,1.60
2022-09-06T19:20:42.697Z,1.70
2022-09-06T19:23:09.201Z,1.50
2022-09-06T19:25:35.820Z,1.57
2022-09-06T19:28:02.397Z,1.93
2022-09-06T19:30:28.933Z,2.20
2022-09-06T19:32:55.453Z,1.80
2022-09-06T19:35:22.125Z,2.13
2022-09-06T19:37:48.803Z,2.00
2022-09-06T19:40:15.432Z,2.00
2022-09-06T19:42:41.999Z,1.50
2022-09-06T19:45:09.627Z,1.60
2022-09-06T19:47:36.241Z,1.40
2022-09-06T19:50:03.431Z,1.43
2022-09-06T19:52:29.948Z,1.47
2022-09-06T19:54:56.451Z,1.93
2022-09-06T19:57:23.025Z,1.70
2022-09-06T19:59:49.561Z,1.50
2022-09-06T20:02:16.201Z,1.40
2022-09-06T20:04:42.819Z,1.60
2022-09-06T20:07:09.439Z,1.83
2022-09-06T20:09:36.006Z,1.80
2022-09-06T20:12:02.727Z,1.90
2022-09-06T20:14:29.296Z,2.10
2022-09-06T20:17:06.552Z,2.10
2022-09-06T20:19:42.361Z,2.00
2022-09-06T20:22:10.878Z,1.53
2022-09-06T20:24:37.982Z,2.00
2022-09-06T20:27:04.514Z,1.50
2022-09-06T20:29:31.035Z,3.90
2022-09-06T20:31:57.678Z,2.07
2022-09-06T20:34:24.208Z,1.60
2022-09-06T20:36:50.748Z,1.77
2022-09-06T20:39:17.603Z,1.90
2022-09-06T20:41:44.195Z,2.00
2022-09-06T20:44:10.702Z,1.80
2022-09-06T20:46:37.230Z,1.90
2022-09-06T20:49:05.018Z,2.00
2022-09-06T20:51:31.663Z,1.50
2022-09-06T20:53:58.164Z,2.33
2022-09-06T20:56:24.769Z,2.77
2022-09-06T20:58:51.348Z,1.60
2022-09-06T21:01:22.317Z,2.10
2022-09-06T21:03:48.921Z,1.97
2022-09-06T21:06:15.469Z,1.93
2022-09-06T21:08:43.034Z,1.90
2022-09-06T21:11:09.869Z,1.90
2022-09-06T21:13:36.432Z,1.53
2022-09-06T21:16:03.037Z,1.53
2022-09-06T21:18:29.758Z,1.90
2022-09-06T21:20:56.382Z,2.63
2022-09-06T21:23:22.947Z,1.70
2022-09-06T21:25:49.483Z,2.57
2022-09-06T21:28:15.990Z,1.90
2022-09-06T21:30:42.492Z,1.77
2022-09-06T21:33:09.010Z,1.80
2022-09-06T21:35:35.538Z,1.90
2022-09-06T21:38:02.073Z,2.10
2022-09-06T21:40:28.604Z,1.77
2022-09-06T21:42:55.159Z,2.07
2022-09-06T21:45:21.655Z,1.80
2022-09-06T21:47:48.198Z,1.50
2022-09-06T21:50:15.329Z,1.40
2022-09-06T21:52:41.848Z,1.77
2022-09-06T21:55:11.313Z,1.90
2022-09-06T21:57:41.509Z,1.20
2022-09-06T22:00:08.045Z,2.37
2022-09-06T22:02:34.677Z,1.63
2022-09-06T22:05:01.304Z,2.17
2022-09-06T22:07:27.818Z,1.83
2022-09-06T22:09:54.432Z,1.73
2022-09-06T22:12:20.979Z,1.40
2022-09-06T22:14:47.549Z,1.80
2022-09-06T22:17:14.076Z,2.03
2022-09-06T22:19:40.594Z,1.90
2022-09-06T22:22:07.153Z,1.63
2022-09-06T22:24:33.655Z,2.00
2022-09-06T22:27:00.187Z,2.23
2022-09-06T22:29:26.801Z,2.00
2022-09-06T22:31:53.411Z,1.83
2022-09-06T22:34:19.931Z,1.80
2022-09-06T22:36:46.603Z,1.77
2022-09-06T22:39:13.144Z,1.83
2022-09-06T22:41:39.714Z,1.90
2022-09-06T22:44:06.776Z,1.50
2022-09-06T22:46:33.390Z,1.37
2022-09-06T22:49:00.113Z,1.67
2022-09-06T22:51:27.057Z,2.20
2022-09-06T22:53:53.588Z,1.90
2022-09-06T22:56:20.161Z,2.03
2022-09-06T22:58:46.686Z,1.97
2022-09-06T23:01:13.343Z,1.90
2022-09-06T23:03:40.604Z,1.47
2022-09-06T23:06:07.163Z,1.70
2022-09-06T23:08:33.703Z,2.13
2022-09-06T23:11:00.209Z,1.80
2022-09-06T23:13:26.732Z,1.87
2022-09-06T23:15:53.418Z,1.40
2022-09-06T23:18:20.009Z,1.93
2022-09-06T23:20:46.547Z,1.77
2022-09-06T23:23:13.572Z,1.93
2022-09-06T23:25:40.247Z,1.63
2022-09-06T23:28:06.945Z,1.60
2022-09-06T23:30:33.522Z,1.40
2022-09-06T23:33:00.080Z,1.50
2022-09-06T23:35:26.642Z,1.60
2022-09-06T23:37:53.776Z,2.27
2022-09-06T23:40:20.513Z,1.77
2022-09-06T23:42:47.114Z,1.33
2022-09-06T23:45:13.719Z,1.37
2022-09-06T23:47:41.122Z,1.80
2022-09-06T23:50:07.693Z,1.33
2022-09-06T23:52:34.213Z,1.40
2022-09-06T23:55:00.943Z,1.57
2022-09-06T23:57:27.451Z,1.87
2022-09-06T23:59:53.943Z,1.50
